Time;durP1;ratioP1;P1;durP2;ratioP2;P2;SDS_P1;SDS_P2;PMS_P1;PMS_P2;Temp;Humidity;BMP_temperature;BMP_pressure;BME280_temperature;BME280_humidity;BME280_pressure;Samples;Min_cycle;Max_cycle;Signal;HPM_P1;HPM_P2
2022/12/06 00:01:45;;;;;;;;;;;;;;;;;;5039948;28;19925;-79
2022/12/06 00:04:13;;;;;;;;;;;;;;;;;;5038149;28;19929;-79
2022/12/06 00:06:46;;;;;;;;;;;;;;;;;;5042050;28;19925;-79
2022/12/06 00:09:14;;;;;;;;;;;;;;;;;;5043516;28;19925;-79
2022/12/06 00:11:46;;;;;;;;;;;;;;;;;;5042408;28;19933;-81
2022/12/06 00:14:14;;;;;;;;;;;;;;;;;;5041962;28;19925;-80
2022/12/06 00:16:41;;;;;;;;;;;;;;;;;;5038888;28;19948;-79
2022/12/06 00:19:09;;;;;;;;;;;;;;;;;;5042341;28;19932;-80
2022/12/06 00:21:41;;;;;;;;;;;;;;;;;;5039676;28;19940;-79
2022/12/06 00:24:14;;;;;;;;;;;;;;;;;;5040211;28;19955;-79
2022/12/06 00:26:46;;;;;;;;;;;;;;;;;;5035430;28;19936;-79
2022/12/06 00:29:19;;;;;;;;;;;;;;;;;;5042840;28;19932;-78
2022/12/06 00:31:46;;;;;;;;;;;;;;;;;;5043502;28;19935;-78
2022/12/06 00:34:19;;;;;;;;;;;;;;;;;;5058656;28;19925;-78
2022/12/06 00:36:48;;;;;;;;;;;;;;;;;;5041234;28;20397;-78
2022/12/06 00:39:20;;;;;;;;;;;;;;;;;;5058735;28;19925;-79
2022/12/06 00:41:53;;;;;;;;;;;;;;;;;;5040265;28;20401;-80
2022/12/06 00:44:26;;;;;;;;;;;;;;;;;;5035783;28;19995;-79
2022/12/06 00:46:53;;;;;;;;;;;;;;;;;;5037554;28;19935;-79
2022/12/06 00:49:20;;;;;;;;;;;;;;;;;;5035779;28;19932;-80
2022/12/06 00:51:48;;;;;;;;;;;;;;;;;;5041553;28;19929;-79
2022/12/06 00:54:21;;;;;;;;;;;;;;;;;;5038630;28;19933;-79
2022/12/06 00:56:48;;;;;;;;;;;;;;;;;;5043626;28;19929;-79
2022/12/06 00:59:16;;;;;;;;;;;;;;;;;;5043592;28;19931;-80
2022/12/06 01:01:43;;;;;;;;;;;;;;;;;;5038450;28;20277;-82
2022/12/06 01:04:16;;;;;;;;;;;;;;;;;;5044621;28;20324;-80
2022/12/06 01:06:43;;;;;;;;;;;;;;;;;;5038376;28;20917;-80
2022/12/06 01:09:16;;;;;;;;;;;;;;;;;;5041640;28;19929;-81
2022/12/06 01:11:48;;;;;;;;;;;;;;;;;;5040392;28;19925;-80
2022/12/06 01:14:21;;;;;;;;;;;;;;;;;;5054895;28;19931;-80
2022/12/06 01:16:53;;;;;;;;;;;;;;;;;;5047152;28;19929;-80
2022/12/06 01:19:21;;;;;;;;;;;;;;;;;;5039544;28;19925;-81
2022/12/06 01:21:48;;;;;;;;;;;;;;;;;;5046496;28;19925;-80
2022/12/06 01:24:16;;;;;;;;;;;;;;;;;;5043603;28;19925;-79
2022/12/06 01:26:48;;;;;;;;;;;;;;;;;;5043987;28;20297;-80
2022/12/06 01:29:16;;;;;;;;;;;;;;;;;;5040360;28;19929;-80
2022/12/06 01:31:49;;;;;;;;;;;;;;;;;;5041997;28;19925;-79
2022/12/06 01:34:21;;;;;;;;;;;;;;;;;;5056880;28;19947;-81
2022/12/06 01:36:48;;;;;;;;;;;;;;;;;;5055884;28;19944;-80
2022/12/06 01:39:21;;;;;;;;;;;;;;;;;;5056481;28;19925;-80
2022/12/06 01:41:53;;;;;;;;;;;;;;;;;;5041741;28;19929;-81
2022/12/06 01:44:26;;;;;;;;;;;;;;;;;;5048365;28;20302;-80
2022/12/06 01:46:53;;;;;;;;;;;;;;;;;;5041617;28;19928;-80
2022/12/06 01:49:21;;;;;;;;;;;;;;;;;;5043000;28;20420;-79
2022/12/06 01:51:54;;;;;;;;;;;;;;;;;;5040754;28;19929;-80
2022/12/06 01:54:26;;;;;;;;;;;;;;;;;;5043222;28;19929;-81
2022/12/06 01:56:59;;;;;;;;;;;;;;;;;;5035834;28;19925;-80
2022/12/06 01:59:31;;;;;;;;;;;;;;;;;;5043738;28;19925;-80
2022/12/06 02:01:59;;;;;;;;;;;;;;;;;;5042308;28;19929;-80
2022/12/06 02:04:26;;;;;;;;;;;;;;;;;;5046469;28;19925;-81
2022/12/06 02:06:54;;;;;;;;;;;;;;;;;;5041011;28;19929;-80
2022/12/06 02:09:21;;;;;;;;;;;;;;;;;;5038054;28;19925;-81
2022/12/06 02:11:49;;;;;;;;;;;;;;;;;;5049880;28;19925;-80
2022/12/06 02:14:17;;;;;;;;;;;;;;;;;;5045537;28;20377;-79
2022/12/06 02:16:45;;;;;;;;;;;;;;;;;;5046053;28;20377;-79
2022/12/06 02:19:12;;;;;;;;;;;;;;;;;;5042587;28;20305;-81
2022/12/06 02:21:40;;;;;;;;;;;;;;;;;;5042688;28;19932;-80
2022/12/06 02:24:07;;;;;;;;;;;;;;;;;;5045337;28;19925;-80
2022/12/06 02:26:40;;;;;;;;;;;;;;;;;;5041307;28;19925;-80
2022/12/06 02:29:12;;;;;;;;;;;;;;;;;;5043304;28;19929;-82
2022/12/06 02:31:40;;;;;;;;;;;;;;;;;;5048128;28;19940;-81
2022/12/06 02:34:07;;;;;;;;;;;;;;;;;;5045397;28;19951;-81
2022/12/06 02:36:40;;;;;;;;;;;;;;;;;;5042009;28;19925;-80
2022/12/06 02:39:07;;;;;;;;;;;;;;;;;;5043225;28;19929;-80
2022/12/06 02:41:35;;;;;;;;;;;;;;;;;;5046271;28;19925;-80
2022/12/06 02:44:02;;;;;;;;;;;;;;;;;;5041384;28;19929;-80
2022/12/06 02:46:35;;;;;;;;;;;;;;;;;;5044452;28;19925;-80
2022/12/06 02:49:02;;;;;;;;;;;;;;;;;;5040526;28;20366;-81
2022/12/06 02:51:30;;;;;;;;;;;;;;;;;;5043722;28;19932;-81
2022/12/06 02:54:02;;;;;;;;;;;;;;;;;;5055462;28;19929;-80
2022/12/06 02:56:30;;;;;;;;;;;;;;;;;;5055491;28;19936;-80
2022/12/06 02:59:04;;;;;;;;;;;;;;;;;;5042709;28;19928;-81
2022/12/06 03:01:36;;;;;;;;;;;;;;;;;;5046137;28;20293;-81
2022/12/06 03:04:04;;;;;;;;;;;;;;;;;;5040097;28;20311;-80
2022/12/06 03:06:31;;;;;;;;;;;;;;;;;;5042849;28;19931;-81
2022/12/06 03:08:59;;;;;;;;;;;;;;;;;;5046043;28;19999;-81
2022/12/06 03:11:31;;;;;;;;;;;;;;;;;;5043385;28;19932;-81
2022/12/06 03:14:04;;;;;;;;;;;;;;;;;;5043254;28;19928;-80
2022/12/06 03:16:37;;;;;;;;;;;;;;;;;;5045423;28;19944;-80
2022/12/06 03:19:04;;;;;;;;;;;;;;;;;;5041232;28;19936;-80
2022/12/06 03:21:32;;;;;;;;;;;;;;;;;;5041806;28;19947;-80
2022/12/06 03:24:04;;;;;;;;;;;;;;;;;;5055035;28;19929;-80
2022/12/06 03:26:32;;;;;;;;;;;;;;;;;;5043930;28;19925;-81
2022/12/06 03:29:04;;;;;;;;;;;;;;;;;;5041430;28;19936;-81
2022/12/06 03:31:32;;;;;;;;;;;;;;;;;;5042992;28;19925;-80
2022/12/06 03:34:05;;;;;;;;;;;;;;;;;;5042625;28;19928;-80
2022/12/06 03:36:37;;;;;;;;;;;;;;;;;;5041626;28;19925;-81
2022/12/06 03:39:10;;;;;;;;;;;;;;;;;;5042050;28;19932;-80
2022/12/06 03:41:37;;;;;;;;;;;;;;;;;;5044783;28;20690;-80
2022/12/06 03:44:05;;;;;;;;;;;;;;;;;;5040761;28;19929;-81
2022/12/06 03:46:32;;;;;;;;;;;;;;;;;;5040502;28;19929;-80
2022/12/06 03:49:00;;;;;;;;;;;;;;;;;;5039314;28;19933;-80
2022/12/06 03:51:32;;;;;;;;;;;;;;;;;;5041239;28;20262;-80
2022/12/06 03:54:05;;;;;;;;;;;;;;;;;;5038751;28;19936;-81
2022/12/06 03:56:37;;;;;;;;;;;;;;;;;;5037687;28;19926;-80
2022/12/06 03:59:05;;;;;;;;;;;;;;;;;;5041259;28;19929;-80
2022/12/06 04:01:37;;;;;;;;;;;;;;;;;;5038395;28;19925;-80
2022/12/06 04:04:05;;;;;;;;;;;;;;;;;;5039670;28;19929;-80
2022/12/06 04:06:32;;;;;;;;;;;;;;;;;;5042196;28;20296;-80
2022/12/06 04:11:46;;;;;;;;;;;;;;;;;;5039637;28;20405;-79
2022/12/06 04:14:19;;;;;;;;;;;;;;;;;;5040785;28;19933;-81
2022/12/06 04:19:31;;;;;;;;;;;;;;;;;;5044796;28;19931;-81
2022/12/06 04:24:51;;;;;;;3.30;1.95;;;;;;;;;;5041720;28;20036;-80
2022/12/06 04:38:41;;;;;;;;;;;;;;;;;;5046808;28;19920;-80
2022/12/06 04:43:40;;;;;;;;;;;;;;;;;;5043934;28;19995;-82
2022/12/06 04:44:06;;;;;;;;;;;;;;;;;;5042652;28;19921;-80
2022/12/06 04:46:39;;;;;;;;;;;;;;;;;;5041584;28;19932;-80
2022/12/06 04:49:06;;;;;;;;;;;;;;;;;;5040924;28;19921;-80
2022/12/06 04:51:34;;;;;;;;;;;;;;;;;;5060091;28;19925;-80
2022/12/06 04:54:01;;;;;;;;;;;;;;;;;;5042969;28;19928;-81
2022/12/06 04:56:34;;;;;;;;;;;;;;;;;;5040291;28;19925;-80
2022/12/06 04:59:01;;;;;;;;;;;;;;;;;;5040103;28;20372;-81
2022/12/06 05:01:34;;;;;;;;;;;;;;;;;;5045588;28;20412;-81
2022/12/06 05:04:01;;;;;;;;;;;;;;;;;;5038061;28;19924;-80
2022/12/06 05:06:34;;;;;;;;;;;;;;;;;;5042117;28;19932;-80
2022/12/06 05:09:06;;;;;;;;;;;;;;;;;;5056315;28;20301;-81
2022/12/06 05:11:34;;;;;;;;;;;;;;;;;;5043174;28;19920;-80
2022/12/06 05:14:06;;;;;;;;;;;;;;;;;;5043106;28;19921;-81
2022/12/06 05:16:34;;;;;;;;;;;;;;;;;;5044971;28;19925;-80
2022/12/06 05:19:01;;;;;;;;;;;;;;;;;;5039148;28;19928;-80
2022/12/06 05:21:34;;;;;;;;;;;;;;;;;;5047112;28;19928;-80
2022/12/06 05:24:06;;;;;;;;;;;;;;;;;;5041231;28;19920;-79
2022/12/06 05:26:34;;;;;;;;;;;;;;;;;;5055883;28;19931;-80
2022/12/06 05:29:01;;;;;;;;;;;;;;;;;;5043181;28;19921;-79
2022/12/06 05:31:34;;;;;;;;;;;;;;;;;;5038386;28;19925;-81
2022/12/06 05:34:01;;;;;;;;;;;;;;;;;;5042464;28;20392;-81
2022/12/06 05:36:29;;;;;;;;;;;;;;;;;;5043208;28;19924;-80
2022/12/06 05:39:02;;;;;;;;;;;;;;;;;;5042889;28;19944;-81
2022/12/06 05:41:34;;;;;;;;;;;;;;;;;;5040710;28;19921;-80
2022/12/06 05:44:02;;;;;;;;;;;;;;;;;;5041587;28;19925;-81
2022/12/06 05:46:34;;;;;;;;;;;;;;;;;;5045946;28;19921;-81
2022/12/06 05:49:02;;;;;;;;;;;;;;;;;;5039625;28;20321;-80
2022/12/06 05:51:34;;;;;;;;;;;;;;;;;;5049028;28;19921;-81
2022/12/06 05:54:04;;;;;;;;;;;;;;;;;;5039282;28;20370;-80
2022/12/06 05:56:38;;;;;;;;;;;;;;;;;;5036957;28;19944;-81
2022/12/06 05:59:06;;;;;;;;;;;;;;;;;;5046460;28;19932;-80
2022/12/06 06:01:38;;;;;;;;;;;;;;;;;;5042701;28;20384;-80
2022/12/06 06:04:06;;;;;;;;;;;;;;;;;;5057214;28;19932;-81
2022/12/06 06:06:33;;;;;;;;;;;;;;;;;;5042879;28;19928;-80
2022/12/06 06:09:06;;;;;;;;;;;;;;;;;;5051694;28;19924;-80
2022/12/06 06:11:38;;;;;;;;;;;;;;;;;;5046195;28;19928;-82
2022/12/06 06:14:06;;;;;;;;;;;;;;;;;;5044605;28;19929;-80
2022/12/06 06:16:33;;;;;;;;;;;;;;;;;;5040499;28;19952;-80
2022/12/06 06:19:06;;;;;;;;;;;;;;;;;;5055292;28;19932;-80
2022/12/06 06:21:33;;;;;;;;;;;;;;;;;;5040276;28;19928;-80
2022/12/06 06:24:06;;;;;;;;;;;;;;;;;;5042694;28;19925;-80
2022/12/06 06:26:33;;;;;;;;;;;;;;;;;;5040881;28;20293;-81
2022/12/06 06:29:01;;;;;;;;;;;;;;;;;;5043577;28;19936;-80
2022/12/06 06:31:28;;;;;;;;;;;;;;;;;;5051937;28;20633;-81
2022/12/06 06:33:56;;;;;;;;;;;;;;;;;;5043045;28;19925;-80
2022/12/06 06:36:23;;;;;;;;;;;;;;;;;;5047118;28;19928;-79
2022/12/06 06:38:51;;;;;;;;;;;;;;;;;;5049290;28;19929;-80
2022/12/06 06:41:19;;;;;;;;;;;;;;;;;;5057139;28;19921;-79
2022/12/06 06:43:46;;;;;;;;;;;;;;;;;;5039703;28;19932;-79
2022/12/06 06:46:14;;;;;;;;;;;;;;;;;;5046863;28;19927;-80
2022/12/06 06:48:46;;;;;;;;;;;;;;;;;;5045822;28;20301;-80
2022/12/06 06:51:14;;;;;;;;;;;;;;;;;;5046137;28;20008;-82
2022/12/06 06:53:42;;;;;;;;;;;;;;;;;;5042857;28;19920;-81
2022/12/06 06:56:14;;;;;;;;;;;;;;;;;;5048648;28;19925;-81
2022/12/06 06:58:42;;;;;;;;;;;;;;;;;;5059522;28;19932;-82
2022/12/06 07:01:09;;;;;;;;;;;;;;;;;;5037663;28;19929;-80
2022/12/06 07:03:37;;;;;;;;;;;;;;;;;;5039165;28;19927;-81
2022/12/06 07:06:04;;;;;;;;;;;;;;;;;;5042237;28;19931;-81
2022/12/06 07:08:32;;;;;;;;;;;;;;;;;;5040552;28;20368;-81
2022/12/06 07:11:00;;;;;;;;;;;;;;;;;;5041350;28;19925;-80
2022/12/06 07:13:32;;;;;;;;;;;;;;;;;;5048084;28;19921;-80
2022/12/06 07:16:00;;;;;;;;;;;;;;;;;;5039812;28;19932;-80
2022/12/06 07:18:27;;;;;;;;;;;;;;;;;;5061802;28;19921;-81
2022/12/06 07:20:55;;;;;;;;;;;;;;;;;;5043848;28;19920;-80
2022/12/06 07:23:23;;;;;;;;;;;;;;;;;;5040843;28;19921;-81
2022/12/06 07:25:50;;;;;;;;;;;;;;;;;;5041172;28;20347;-81
2022/12/06 07:28:23;;;;;;;;;;;;;;;;;;5066027;28;20277;-79
2022/12/06 07:30:50;;;;;;;;;;;;;;;;;;5036781;28;19928;-79
2022/12/06 07:33:18;;;;;;;;;;;;;;;;;;5042866;28;19929;-81
2022/12/06 07:35:45;;;;;;;;;;;;;;;;;;5049148;28;19928;-80
2022/12/06 07:38:19;;;;;;;;;;;;;;;;;;5044913;28;19925;-80
2022/12/06 07:40:51;;;;;;;;;;;;;;;;;;5041549;28;19932;-80
2022/12/06 07:46:09;;;;;;;;;;;;;;;;;;5038748;28;20289;-80
2022/12/06 07:48:41;;;;;;;;;;;;;;;;;;5045726;28;19921;-79
2022/12/06 07:51:14;;;;;;;;;;;;;;;;;;5045531;28;19921;-80
2022/12/06 07:53:42;;;;;;;;;;;;;;;;;;5036977;28;19920;-81
2022/12/06 07:56:14;;;;;;;;;;;;;;;;;;5039813;28;19947;-80
2022/12/06 07:58:47;;;;;;;;;;;;;;;;;;5042977;28;19931;-80
2022/12/06 08:01:14;;;;;;;;;;;;;;;;;;5037531;28;19928;-81
2022/12/06 08:03:47;;;;;;;;;;;;;;;;;;5037188;28;19929;-81
2022/12/06 08:06:19;;;;;;;;;;;;;;;;;;5039691;28;19921;-80
2022/12/06 08:08:47;;;;;;;;;;;;;;;;;;5047352;28;19932;-79
2022/12/06 08:11:14;;;;;;;;;;;;;;;;;;5036444;28;20389;-80
2022/12/06 08:13:47;;;;;;;;;;;;;;;;;;5046961;28;19924;-80
2022/12/06 08:16:19;;;;;;;;;;;;;;;;;;5058082;28;19921;-80
2022/12/06 08:18:47;;;;;;;;;;;;;;;;;;5037613;28;19932;-80
2022/12/06 08:21:15;;;;;;;;;;;;;;;;;;5051834;28;19928;-80
2022/12/06 08:23:47;;;;;;;;;;;;;;;;;;5035135;28;19936;-80
2022/12/06 08:26:15;;;;;;;;;;;;;;;;;;5054198;28;19921;-81
2022/12/06 08:28:47;;;;;;;;;;;;;;;;;;5024245;28;20302;-81
2022/12/06 08:31:20;;;;;;;;;;;;;;;;;;5029248;28;20437;-81
2022/12/06 08:33:47;;;;;;;;;;;;;;;;;;5023702;28;19932;-82
2022/12/06 08:36:15;;;;;;;;;;;;;;;;;;5019967;28;19967;-83
2022/12/06 08:38:47;;;;;;;;;;;;;;;;;;5031799;28;19925;-81
2022/12/06 08:44:05;;;;;;;;;;;;;;;;;;5030271;28;19940;-83
2022/12/06 08:46:33;;;;;;;;;;;;;;;;;;5025766;28;19928;-83
2022/12/06 08:49:01;;;;;;;;;;;;;;;;;;5023988;28;19936;-81
2022/12/06 08:51:34;;;;;;;;;;;;;;;;;;5018484;28;19929;-81
2022/12/06 08:54:06;;;;;;;;;;;;;;;;;;5036131;28;20667;-83
2022/12/06 08:56:39;;;;;;;;;;;;;;;;;;5026480;28;21670;-81
2022/12/06 08:59:11;;;;;;;;;;;;;;;;;;5022587;28;21271;-81
2022/12/06 09:01:44;;;;;;;;;;;;;;;;;;5043625;28;19929;-83
2022/12/06 09:04:11;;;;;;;;;;;;;;;;;;5029342;28;19936;-82
2022/12/06 09:06:39;;;;;;;;;;;;;;;;;;5023581;28;20392;-81
2022/12/06 09:09:07;;;;;;;;;;;;;;;;;;5024399;28;20491;-83
2022/12/06 09:11:34;;;;;;;;;;;;;;;;;;5024283;28;19948;-83
2022/12/06 09:14:02;;;;;;;;;;;;;;;;;;5025056;28;19936;-82
2022/12/06 09:16:30;;;;;;;;;;;;;;;;;;5021323;28;19936;-82
2022/12/06 09:18:57;;;;;;;;;;;;;;;;;;5023837;28;19939;-82
2022/12/06 09:21:25;;;;;;;;;;;;;;;;;;5031679;28;19929;-81
2022/12/06 09:23:58;;;;;;;;;;;;;;;;;;5046707;28;19935;-80
2022/12/06 09:26:30;;;;;;;;;;;;;;;;;;5029884;28;19932;-83
2022/12/06 09:29:03;;;;;;;;;;;;;;;;;;5033880;28;20377;-82
2022/12/06 09:31:30;;;;;;;;;;;;;;;;;;5028707;28;19934;-83
2022/12/06 09:34:03;;;;;;;;;;;;;;;;;;5048206;28;19929;-83
2022/12/06 09:36:35;;;;;;;;;;;;;;;;;;5030169;28;19935;-83
2022/12/06 09:39:08;;;;;;;;;;;;;;;;;;5032162;28;19944;-83
2022/12/06 09:41:35;;;;;;;;;;;;;;;;;;5032849;28;20839;-81
2022/12/06 09:44:03;;;;;;;;;;;;;;;;;;5031262;28;19932;-82
2022/12/06 09:46:30;;;;;;;;;;;;;;;;;;5025499;28;19936;-82
2022/12/06 09:48:58;;;;;;;;;;;;;;;;;;5023484;28;19925;-81
2022/12/06 09:51:25;;;;;;;;;;;;;;;;;;5034865;28;19921;-81
2022/12/06 09:53:53;;;;;;;;;;;;;;;;;;5032924;28;19928;-83
2022/12/06 09:56:25;;;;;;;;;;;;;;;;;;5030635;28;19921;-82
2022/12/06 09:58:53;;;;;;;;;;;;;;;;;;5030527;28;20365;-83
2022/12/06 10:01:20;;;;;;;;;;;;;;;;;;5029442;28;19936;-83
2022/12/06 10:03:48;;;;;;;;;;;;;;;;;;5032471;28;19925;-82
2022/12/06 10:06:15;;;;;;;;;;;;;;;;;;5030385;28;20396;-84
2022/12/06 10:08:48;;;;;;;;;;;;;;;;;;5037406;28;20389;-82
2022/12/06 10:11:20;;;;;;;;;;;;;;;;;;5030354;28;19928;-82
2022/12/06 10:13:48;;;;;;;;;;;;;;;;;;5029555;28;19929;-83
2022/12/06 10:16:15;;;;;;;;;;;;;;;;;;5028719;28;19928;-83
2022/12/06 10:18:43;;;;;;;;;;;;;;;;;;5026109;28;19929;-83
2022/12/06 10:21:10;;;;;;;;;;;;;;;;;;5031725;28;19929;-81
2022/12/06 10:23:43;;;;;;;;;;;;;;;;;;5032270;28;19940;-83
2022/12/06 10:26:10;;;;;;;;;;;;;;;;;;5027416;28;19929;-82
2022/12/06 10:28:43;;;;;;;;;;;;;;;;;;5033151;28;19920;-84
2022/12/06 10:31:15;;;;;;;;;;;;;;;;;;5032887;28;19936;-83
2022/12/06 10:33:43;;;;;;;;;;;;;;;;;;5035818;28;19929;-82
2022/12/06 10:36:15;;;;;;;;;;;;;;;;;;5030828;28;19929;-82
2022/12/06 10:38:43;;;;;;;;;;;;;;;;;;5029518;28;19935;-82
2022/12/06 10:41:15;;;;;;;;;;;;;;;;;;5033447;28;19928;-85
2022/12/06 10:43:48;;;;;;;;;;;;;;;;;;5033527;28;19929;-82
2022/12/06 10:49:06;;;;;;;;;;;;;;;;;;5026880;28;19935;-84
2022/12/06 10:51:34;;;;;;;;;;;;;;;;;;5029601;28;19928;-84
2022/12/06 10:54:01;;;;;;;;;;;;;;;;;;5026509;28;19940;-83
2022/12/06 10:56:34;;;;;;;;;;;;;;;;;;5047124;28;19921;-81
2022/12/06 10:59:01;;;;;;;;;;;;;;;;;;5036172;28;19928;-83
2022/12/06 11:01:34;;;;;;;;;;;;;;;;;;5031796;28;19921;-81
2022/12/06 11:04:06;;;;;;;;;;;;;;;;;;5032962;28;20667;-85
2022/12/06 11:06:39;;;;;;;;;;;;;;;;;;5033000;28;19929;-83
2022/12/06 11:09:11;;;;;;;;;;;;;;;;;;5048142;28;19928;-83
2022/12/06 11:11:39;;;;;;;;;;;;;;;;;;5029199;28;19928;-82
2022/12/06 11:14:11;;;;;;;;;;;;;;;;;;5029158;28;19929;-81
2022/12/06 11:16:39;;;;;;;;;;;;;;;;;;5030289;28;20580;-81
2022/12/06 11:19:06;;;;;;;;;;;;;;;;;;5031056;28;19933;-82
2022/12/06 11:21:34;;;;;;;;;;;;;;;;;;5028386;28;19928;-81
2022/12/06 11:24:07;;;;;;;;;;;;;;;;;;5038106;28;19929;-81
2022/12/06 11:26:34;;;;;;;;;;;;;;;;;;5045951;28;19935;-83
2022/12/06 11:29:04;;;;;;;;;;;;;;;;;;5028525;28;21653;-81
2022/12/06 11:31:32;;;;;;;;;;;;;;;;;;5030167;28;19928;-85
2022/12/06 11:34:04;;;;;;;;;;;;;;;;;;5034903;28;19928;-81
2022/12/06 11:36:37;;;;;;;;;;;;;;;;;;5034193;28;19921;-82
2022/12/06 11:39:04;;;;;;;;;;;;;;;;;;5031470;28;19929;-83
2022/12/06 11:41:37;;;;;;;;;;;;;;;;;;5034652;28;19935;-83
2022/12/06 11:44:04;;;;;;;;;;;;;;;;;;5030695;28;19932;-83
2022/12/06 11:46:32;;;;;;;;;;;;;;;;;;5030587;28;19929;-83
2022/12/06 11:49:04;;;;;;;;;;;;;;;;;;5034896;28;19935;-83
2022/12/06 11:51:32;;;;;;;;;;;;;;;;;;5029863;28;20813;-82
2022/12/06 11:53:59;;;;;;;;;;;;;;;;;;5032861;28;19929;-82
2022/12/06 11:56:27;;;;;;;;;;;;;;;;;;5029806;28;19929;-81
2022/12/06 11:59:00;;;;;;;;;;;;;;;;;;5028362;28;19929;-83
2022/12/06 12:01:32;;;;;;;;;;;;;;;;;;5030251;28;19936;-81
2022/12/06 12:04:00;;;;;;;;;;;;;;;;;;5034537;28;19929;-83
2022/12/06 12:06:27;;;;;;;;;;;;;;;;;;5033000;28;20638;-86
2022/12/06 12:08:55;;;;;;;;;;;;;;;;;;5026354;28;20377;-81
2022/12/06 12:11:22;;;;;;;;;;;;;;;;;;5033405;28;19936;-82
2022/12/06 12:13:50;;;;;;;;;;;;;;;;;;5028988;28;19939;-84
2022/12/06 12:16:22;;;;;;;;;;;;;;;;;;5032439;28;19929;-82
2022/12/06 12:18:50;;;;;;;;;;;;;;;;;;5026126;28;20333;-80
2022/12/06 12:21:17;;;;;;;;;;;;;;;;;;5026382;28;19928;-83
2022/12/06 12:23:45;;;;;;;;;;;;;;;;;;5030687;28;19928;-82
2022/12/06 12:26:12;;;;;;;;;;;;;;;;;;5034203;28;19920;-81
2022/12/06 12:28:40;;;;;;;;;;;;;;;;;;5025981;28;20292;-84
2022/12/06 12:31:07;;;;;;;;;;;;;;;;;;5025622;28;19935;-83
2022/12/06 12:33:35;;;;;;;;;;;;;;;;;;5025874;28;20570;-81
2022/12/06 12:36:03;;;;;;;;;;;;;;;;;;5030837;28;20345;-82
2022/12/06 12:38:30;;;;;;;;;;;;;;;;;;5027133;28;19936;-82
2022/12/06 12:40:58;;;;;;;;;;;;;;;;;;5028488;28;19929;-83
2022/12/06 12:43:25;;;;;;;;;;;;;;;;;;5031054;28;19920;-82
2022/12/06 12:45:53;;;;;;;;;;;;;;;;;;5030868;28;19929;-81
2022/12/06 12:48:20;;;;;;;;;;;;;;;;;;5027439;28;19936;-82
2022/12/06 12:50:48;;;;;;;;;;;;;;;;;;5027512;28;19929;-80
2022/12/06 12:53:20;;;;;;;;;;;;;;;;;;5030272;28;19936;-84
2022/12/06 12:55:53;;;;;;;;;;;;;;;;;;5028406;28;20904;-81
2022/12/06 12:58:25;;;;;;;;;;;;;;;;;;5026403;28;19929;-83
2022/12/06 13:00:58;;;;;;;;;;;;;;;;;;5030704;28;19920;-81
2022/12/06 13:03:30;;;;;;;;;;;;;;;;;;5035807;28;19940;-84
2022/12/06 13:05:58;;;;;;;;;;;;;;;;;;5026860;28;19925;-83
2022/12/06 13:08:25;;;;;;;;;;;;;;;;;;5037217;28;19943;-81
2022/12/06 13:10:53;;;;;;;;;;;;;;;;;;5028318;28;19929;-81
2022/12/06 13:13:20;;;;;;;;;;;;;;;;;;5030175;28;21318;-81
2022/12/06 13:15:48;;;;;;;;;;;;;;;;;;5028382;28;19929;-80
2022/12/06 13:18:21;;;;;;;;;;;;;;;;;;5028521;28;19928;-80
2022/12/06 13:20:53;;;;;;;;;;;;;;;;;;5032434;28;19936;-83
2022/12/06 13:23:22;;;;;;;;;;;;;;;;;;5035270;28;19940;-83
2022/12/06 13:25:50;;;;;;;;;;;;;;;;;;5034171;28;19935;-82
2022/12/06 13:28:17;;;;;;;;;;;;;;;;;;5035230;28;19924;-81
2022/12/06 13:30:45;;;;;;;;;;;;;;;;;;5028906;28;19936;-87
2022/12/06 13:33:17;;;;;;;;;;;;;;;;;;5028315;28;19927;-83
2022/12/06 13:35:45;;;;;;;;;;;;;;;;;;5028716;28;19929;-81
2022/12/06 13:38:13;;;;;;;;;;;;;;;;;;5027280;28;19971;-83
2022/12/06 13:40:40;;;;;;;;;;;;;;;;;;5027806;28;19948;-82
2022/12/06 13:43:13;;;;;;;;;;;;;;;;;;5029396;28;19929;-82
2022/12/06 13:45:40;;;;;;;;;;;;;;;;;;5037075;28;19936;-84
2022/12/06 13:48:08;;;;;;;;;;;;;;;;;;5028878;28;19928;-81
2022/12/06 13:50:40;;;;;;;;;;;;;;;;;;5029304;28;20317;-81
2022/12/06 13:53:13;;;;;;;;;;;;;;;;;;5029631;28;19929;-81
2022/12/06 13:55:45;;;;;;;;;;;;;;;;;;5029150;28;19925;-83
2022/12/06 13:58:13;;;;;;;;;;;;;;;;;;5028277;28;19951;-84
2022/12/06 14:00:45;;;;;;;;;;;;;;;;;;5028696;28;19928;-81
2022/12/06 14:03:13;;;;;;;;;;;;;;;;;;5030086;28;19935;-82
2022/12/06 14:05:45;;;;;;;;;;;;;;;;;;5028008;28;19936;-82
2022/12/06 14:08:18;;;;;;;;;;;;;;;;;;5030275;28;19928;-82
2022/12/06 14:10:45;;;;;;;;;;;;;;;;;;5040215;28;19936;-83
2022/12/06 14:13:18;;;;;;;;;;;;;;;;;;5031936;28;19978;-81
2022/12/06 14:15:50;;;;;;;;;;;;;;;;;;5030923;28;19935;-83
2022/12/06 14:18:18;;;;;;;;;;;;;;;;;;5043727;28;19932;-81
2022/12/06 14:20:46;;;;;;;;;;;;;;;;;;5029009;28;19928;-84
2022/12/06 14:23:18;;;;;;;;;;;;;;;;;;5030856;28;19935;-83
2022/12/06 14:25:46;;;;;;;;;;;;;;;;;;5028572;28;19928;-81
2022/12/06 14:28:13;;;;;;;;;;;;;;;;;;5031629;28;19935;-87
2022/12/06 14:30:46;;;;;;;;;;;;;;;;;;5028725;28;19936;-82
2022/12/06 14:33:13;;;;;;;;;;;;;;;;;;5027394;28;19929;-83
2022/12/06 14:35:41;;;;;;;;;;;;;;;;;;5028241;28;19929;-82
2022/12/06 14:38:13;;;;;;;;;;;;;;;;;;5028802;28;19959;-80
2022/12/06 14:43:27;;;;;;;;;;;;;;;;;;5027222;28;20393;-82
2022/12/06 14:45:55;;;;;;;;;;;;;;;;;;5034682;28;20562;-81
2022/12/06 14:48:23;;;;;;;;;;;;;;;;;;5035873;28;20184;-83
2022/12/06 14:50:49;;;;;;;;;;;;;;;;;;5024578;28;19925;-79
2022/12/06 14:53:24;;;;;;;;;;;;;;;;;;5027822;28;19929;-81
2022/12/06 14:55:52;;;;;;;;;;;;;;;;;;5023568;28;19935;-83
2022/12/06 14:58:24;;;;;;;;;;;;;;;;;;5034072;28;19928;-81
2022/12/06 15:00:57;;;;;;;;;;;;;;;;;;5031441;28;19944;-81
2022/12/06 15:03:24;;;;;;;;;;;;;;;;;;5026193;28;20618;-82
2022/12/06 15:05:56;;;;;;;;;;;;;;;;;;5023259;28;19936;-82
2022/12/06 15:08:28;;;;;;;;;;;;;;;;;;5043306;28;19929;-81
2022/12/06 15:10:56;;;;;;;;;;;;;;;;;;5022881;28;19929;-81
2022/12/06 15:13:23;;;;;;;;;;;;;;;;;;5021787;28;19940;-80
2022/12/06 15:15:50;;;;;;;;;;;;;;;;;;5026214;28;19928;-79
2022/12/06 15:18:18;;;;;;;;;;;;;;;;;;5029223;28;20870;-83
2022/12/06 15:20:45;;;;;;;;;;;;;;;;;;5028017;28;19929;-81
2022/12/06 15:23:18;;;;;;;;;;;;;;;;;;5024164;28;19928;-81
2022/12/06 15:25:50;;;;;;;;;;;;;;;;;;5026367;28;19958;-82
2022/12/06 15:28:18;;;;;;;;;;;;;;;;;;5031237;28;19929;-81
2022/12/06 15:30:46;;;;;;;;;;;;;;;;;;5043896;28;19929;-83
2022/12/06 15:33:13;;;;;;;;;;;;;;;;;;5032036;28;19928;-80
2022/12/06 15:35:41;;;;;;;;;;;;;;;;;;5029937;28;19929;-82
2022/12/06 15:38:09;;;;;;;;;;;;;;;;;;5026715;28;19928;-81
2022/12/06 15:40:41;;;;;;;;;;;;;;;;;;5028124;28;19939;-81
2022/12/06 15:43:16;;;;;;;;;;;;;;;;;;5029941;28;20490;-82
2022/12/06 15:45:43;;;;;;;;;;;;;;;;;;5031270;28;19933;-81
2022/12/06 15:48:11;;;;;;;;;;;;;;;;;;5030197;28;19933;-84
2022/12/06 15:50:39;;;;;;;;;;;;;;;;;;5026535;28;19940;-79
2022/12/06 15:53:06;;;;;;;;;;;;;;;;;;5026370;28;19939;-82
2022/12/06 15:55:39;;;;;;;;;;;;;;;;;;5032435;28;20416;-80
2022/12/06 15:58:06;;;;;;;;;;;;;;;;;;5027101;28;19933;-81
2022/12/06 16:00:39;;;;;;;;;;;;;;;;;;5028213;28;19933;-82
2022/12/06 16:03:07;;;;;;;;;;;;;;;;;;5030170;28;19959;-81
2022/12/06 16:05:40;;;;;;;;;;;;;;;;;;5028950;28;19933;-81
2022/12/06 16:08:08;;;;;;;;;;;;;;;;;;5029985;28;21763;-81
2022/12/06 16:10:35;;;;;;;;;;;;;;;;;;5028745;28;19939;-81
2022/12/06 16:13:22;;;;;;;;;;;;;;;;;;5022845;28;20756;-80
2022/12/06 16:15:50;;;;;;;;;;;;;;;;;;5033948;28;19955;-81
2022/12/06 16:18:17;;;;;;;;;;;;;;;;;;5028261;28;19959;-80
2022/12/06 16:20:50;;;;;;;;;;;;;;;;;;5020911;28;19937;-80
2022/12/06 16:26:08;;;;;;;;;;;;;;;;;;5023361;28;19933;-81
2022/12/06 16:28:35;;;;;;;;;;;;;;;;;;5029441;28;19933;-82
2022/12/06 16:31:03;;;;;;;;;;;;;;;;;;5015964;28;19939;-81
2022/12/06 16:33:31;;;;;;;;;;;;;;;;;;5021857;28;19940;-81
2022/12/06 16:35:58;;;;;;;;;;;;;;;;;;5042756;28;19929;-79
2022/12/06 16:38:31;;;;;;;;;;;;;;;;;;5006677;28;19940;-82
2022/12/06 16:40:58;;;;;;;;;;;;;;;;;;5023541;28;19932;-80
2022/12/06 16:43:31;;;;;;;;;;;;;;;;;;5021613;28;19933;-80
2022/12/06 16:46:03;;;;;;;;;;;;;;;;;;5030986;28;19955;-82
2022/12/06 16:48:31;;;;;;;;;;;;;;;;;;5030200;28;19925;-81
2022/12/06 16:50:58;;;;;;;;;;;;;;;;;;5031111;28;19940;-80
2022/12/06 16:53:26;;;;;;;;;;;;;;;;;;5027059;28;19925;-82
2022/12/06 16:55:53;;;;;;;;;;;;;;;;;;5032671;28;19929;-82
2022/12/06 16:58:26;;;;;;;;;;;;;;;;;;5024805;28;19935;-82
2022/12/06 17:00:58;;;;;;;;;;;;;;;;;;5032756;28;20423;-80
2022/12/06 17:03:31;;;;;;;;;;;;;;;;;;5025517;28;19933;-81
2022/12/06 17:06:03;;;;;;;;;;;;;;;;;;5030661;28;20362;-82
2022/12/06 17:08:31;;;;;;;;;;;;;;;;;;5030115;28;19940;-83
2022/12/06 17:12:01;;;;;;;;;;;;;;;;;;5023568;28;19933;-81
2022/12/06 17:13:46;;;;;;;;;;;;;;;;;;5023741;28;19944;-81
2022/12/06 17:16:13;;;;;;;;;;;;;;;;;;5025509;28;19937;-81
2022/12/06 17:18:46;;;;;;;;;;;;;;;;;;5025215;28;21205;-79
2022/12/06 17:21:18;;;;;;;;;;;;;;;;;;5026261;28;19933;-82
2022/12/06 17:23:51;;;;;;;;;;;;;;;;;;5030137;28;19943;-83
2022/12/06 17:26:19;;;;;;;;;;;;;;;;;;5030284;28;20315;-83
2022/12/06 17:28:46;;;;;;;;;;;;;;;;;;5027932;28;19933;-83
2022/12/06 17:31:14;;;;;;;;;;;;;;;;;;5031101;28;19933;-80
2022/12/06 17:33:46;;;;;;;;;;;;;;;;;;5025481;28;19940;-83
2022/12/06 17:36:19;;;;;;;;;;;;;;;;;;5027756;28;19944;-81